sensor_id;sensor_type;location;lat;lon;timestamp;pressure;altitude;pressure_sealevel;temperature;humidity
70323;BME280;57735;56.264;43.898;2024-02-26T00:00:50;102632.16;;;-5.28;52.46
70323;BME280;57735;56.264;43.898;2024-02-26T00:03:21;102625.25;;;-5.28;52.34
70323;BME280;57735;56.264;43.898;2024-02-26T00:05:52;102619.19;;;-5.27;52.97
70323;BME280;57735;56.264;43.898;2024-02-26T00:08:23;102624.38;;;-5.27;52.80
70323;BME280;57735;56.264;43.898;2024-02-26T00:10:54;102623.50;;;-5.29;52.71
70323;BME280;57735;56.264;43.898;2024-02-26T00:13:24;102635.63;;;-5.31;52.89
70323;BME280;57735;56.264;43.898;2024-02-26T00:15:55;102612.22;;;-5.31;52.55
70323;BME280;57735;56.264;43.898;2024-02-26T00:18:26;102618.28;;;-5.35;52.89
70323;BME280;57735;56.264;43.898;2024-02-26T00:20:57;102620.88;;;-5.35;52.72
70323;BME280;57735;56.264;43.898;2024-02-26T00:23:28;102617.44;;;-5.31;53.58
70323;BME280;57735;56.264;43.898;2024-02-26T00:25:59;102606.16;;;-5.30;53.09
70323;BME280;57735;56.264;43.898;2024-02-26T00:28:30;102616.56;;;-5.33;53.37
70323;BME280;57735;56.264;43.898;2024-02-26T00:31:03;102610.50;;;-5.33;53.53
70323;BME280;57735;56.264;43.898;2024-02-26T00:33:34;102605.28;;;-5.33;53.97
70323;BME280;57735;56.264;43.898;2024-02-26T00:36:05;102605.28;;;-5.35;54.08
70323;BME280;57735;56.264;43.898;2024-02-26T00:38:36;102598.38;;;-5.39;54.50
70323;BME280;57735;56.264;43.898;2024-02-26T00:41:07;102602.72;;;-5.39;54.81
70323;BME280;57735;56.264;43.898;2024-02-26T00:43:38;102597.50;;;-5.44;55.16
70323;BME280;57735;56.264;43.898;2024-02-26T00:46:10;102600.06;;;-5.50;54.48
70323;BME280;57735;56.264;43.898;2024-02-26T00:48:41;102592.28;;;-5.56;54.73
70323;BME280;57735;56.264;43.898;2024-02-26T00:51:12;102594.00;;;-5.64;54.66
70323;BME280;57735;56.264;43.898;2024-02-26T00:53:43;102587.06;;;-5.71;55.04
70323;BME280;57735;56.264;43.898;2024-02-26T00:56:14;102594.81;;;-5.79;54.40
70323;BME280;57735;56.264;43.898;2024-02-26T00:58:48;102600.00;;;-5.88;54.33
70323;BME280;57735;56.264;43.898;2024-02-26T01:01:18;102587.91;;;-5.93;54.37
70323;BME280;57735;56.264;43.898;2024-02-26T01:03:50;102585.25;;;-6.00;54.45
70323;BME280;57735;56.264;43.898;2024-02-26T01:06:21;102592.19;;;-6.02;54.89
70323;BME280;57735;56.264;43.898;2024-02-26T01:08:52;102583.53;;;-6.05;54.77
70323;BME280;57735;56.264;43.898;2024-02-26T01:11:24;102582.66;;;-6.09;54.55
70323;BME280;57735;56.264;43.898;2024-02-26T01:13:54;102580.91;;;-6.10;55.05
70323;BME280;57735;56.264;43.898;2024-02-26T01:16:27;102580.91;;;-6.10;55.46
70323;BME280;57735;56.264;43.898;2024-02-26T01:19:00;102582.63;;;-6.12;56.05
70323;BME280;57735;56.264;43.898;2024-02-26T01:21:30;102587.81;;;-6.12;55.65
70323;BME280;57735;56.264;43.898;2024-02-26T01:24:01;102586.09;;;-6.14;56.07
70323;BME280;57735;56.264;43.898;2024-02-26T01:26:32;102587.00;;;-6.08;56.51
70323;BME280;57735;56.264;43.898;2024-02-26T01:29:03;102593.91;;;-6.07;56.85
70323;BME280;57735;56.264;43.898;2024-02-26T01:31:34;102585.25;;;-6.07;56.27
70323;BME280;57735;56.264;43.898;2024-02-26T01:34:05;102579.19;;;-6.09;56.02
70323;BME280;57735;56.264;43.898;2024-02-26T01:36:35;102581.78;;;-6.11;55.99
70323;BME280;57735;56.264;43.898;2024-02-26T01:39:06;102580.94;;;-6.08;56.11
70323;BME280;57735;56.264;43.898;2024-02-26T01:41:37;102573.16;;;-6.07;56.44
70323;BME280;57735;56.264;43.898;2024-02-26T01:44:12;102571.41;;;-6.08;56.02
70323;BME280;57735;56.264;43.898;2024-02-26T01:46:43;102574.00;;;-6.09;56.39
70323;BME280;57735;56.264;43.898;2024-02-26T01:49:14;102572.25;;;-6.10;56.60
70323;BME280;57735;56.264;43.898;2024-02-26T01:51:48;102568.78;;;-6.14;56.55
70323;BME280;57735;56.264;43.898;2024-02-26T01:54:20;102567.91;;;-6.14;56.55
70323;BME280;57735;56.264;43.898;2024-02-26T01:56:54;102568.78;;;-6.15;56.63
70323;BME280;57735;56.264;43.898;2024-02-26T01:59:25;102567.03;;;-6.16;56.99
70323;BME280;57735;56.264;43.898;2024-02-26T02:01:57;102571.34;;;-6.17;56.61
70323;BME280;57735;56.264;43.898;2024-02-26T02:04:32;102567.91;;;-6.16;56.54
70323;BME280;57735;56.264;43.898;2024-02-26T02:07:03;102566.16;;;-6.17;56.79
70323;BME280;57735;56.264;43.898;2024-02-26T02:09:35;102567.03;;;-6.15;56.92
70323;BME280;57735;56.264;43.898;2024-02-26T02:12:06;102564.44;;;-6.15;57.08
70323;BME280;57735;56.264;43.898;2024-02-26T02:14:37;102573.09;;;-6.14;56.58
70323;BME280;57735;56.264;43.898;2024-02-26T02:17:08;102569.63;;;-6.15;56.12
70323;BME280;57735;56.264;43.898;2024-02-26T02:19:40;102571.38;;;-6.15;56.44
70323;BME280;57735;56.264;43.898;2024-02-26T02:22:11;102570.50;;;-6.16;56.26
70323;BME280;57735;56.264;43.898;2024-02-26T02:24:42;102577.41;;;-6.16;56.61
70323;BME280;57735;56.264;43.898;2024-02-26T02:27:12;102574.84;;;-6.15;55.83
70323;BME280;57735;56.264;43.898;2024-02-26T02:29:43;102561.84;;;-6.15;55.66
70323;BME280;57735;56.264;43.898;2024-02-26T02:32:15;102570.50;;;-6.16;55.92
70323;BME280;57735;56.264;43.898;2024-02-26T02:34:48;102564.47;;;-6.13;56.12
70323;BME280;57735;56.264;43.898;2024-02-26T02:37:18;102567.91;;;-6.13;55.80
70323;BME280;57735;56.264;43.898;2024-02-26T02:39:49;102559.28;;;-6.09;55.93
70323;BME280;57735;56.264;43.898;2024-02-26T02:42:20;102564.50;;;-6.06;56.36
70323;BME280;57735;56.264;43.898;2024-02-26T02:44:53;102563.63;;;-6.05;56.12
70323;BME280;57735;56.264;43.898;2024-02-26T02:47:27;102562.78;;;-6.05;56.43
70323;BME280;57735;56.264;43.898;2024-02-26T02:49:57;102564.47;;;-6.03;56.32
70323;BME280;57735;56.264;43.898;2024-02-26T02:52:28;102560.16;;;-6.01;55.69
70323;BME280;57735;56.264;43.898;2024-02-26T02:55:02;102558.44;;;-5.97;56.59
70323;BME280;57735;56.264;43.898;2024-02-26T02:57:34;102554.16;;;-5.93;56.49
70323;BME280;57735;56.264;43.898;2024-02-26T03:00:05;102555.88;;;-5.91;56.35
70323;BME280;57735;56.264;43.898;2024-02-26T03:02:36;102555.03;;;-5.88;55.68
70323;BME280;57735;56.264;43.898;2024-02-26T03:05:07;102558.50;;;-5.89;56.38
70323;BME280;57735;56.264;43.898;2024-02-26T03:07:38;102557.63;;;-5.88;55.87
70323;BME280;57735;56.264;43.898;2024-02-26T03:10:09;102554.97;;;-5.85;56.12
70323;BME280;57735;56.264;43.898;2024-02-26T03:12:40;102557.59;;;-5.84;55.73
70323;BME280;57735;56.264;43.898;2024-02-26T03:15:11;102561.06;;;-5.79;55.34
70323;BME280;57735;56.264;43.898;2024-02-26T03:17:42;102564.53;;;-5.78;55.18
70323;BME280;57735;56.264;43.898;2024-02-26T03:20:13;102553.28;;;-5.76;55.35
70323;BME280;57735;56.264;43.898;2024-02-26T03:22:47;102555.88;;;-5.74;55.51
70323;BME280;57735;56.264;43.898;2024-02-26T03:25:18;102551.56;;;-5.71;54.66
70323;BME280;57735;56.264;43.898;2024-02-26T03:27:49;102553.28;;;-5.68;54.98
70323;BME280;57735;56.264;43.898;2024-02-26T03:30:20;102549.84;;;-5.64;55.12
70323;BME280;57735;56.264;43.898;2024-02-26T03:32:51;102555.91;;;-5.59;55.36
70323;BME280;57735;56.264;43.898;2024-02-26T03:35:22;102553.31;;;-5.56;55.45
70323;BME280;57735;56.264;43.898;2024-02-26T03:37:55;102555.91;;;-5.53;55.18
70323;BME280;57735;56.264;43.898;2024-02-26T03:40:26;102557.63;;;-5.50;54.60
70323;BME280;57735;56.264;43.898;2024-02-26T03:42:57;102567.16;;;-5.49;54.25
70323;BME280;57735;56.264;43.898;2024-02-26T03:45:28;102551.59;;;-5.46;54.56
70323;BME280;57735;56.264;43.898;2024-02-26T03:47:59;102558.53;;;-5.42;54.65
70323;BME280;57735;56.264;43.898;2024-02-26T03:50:36;102560.25;;;-5.40;54.46
70323;BME280;57735;56.264;43.898;2024-02-26T03:53:06;102560.25;;;-5.35;54.09
70323;BME280;57735;56.264;43.898;2024-02-26T03:55:39;102553.31;;;-5.35;54.20
70323;BME280;57735;56.264;43.898;2024-02-26T03:58:15;102555.91;;;-5.32;54.30
70323;BME280;57735;56.264;43.898;2024-02-26T04:00:45;102565.44;;;-5.29;54.21
70323;BME280;57735;56.264;43.898;2024-02-26T04:03:18;102559.41;;;-5.28;53.96
70323;BME280;57735;56.264;43.898;2024-02-26T04:05:48;102573.25;;;-5.29;54.13
70323;BME280;57735;56.264;43.898;2024-02-26T04:08:19;102562.00;;;-5.30;54.49
70323;BME280;57735;56.264;43.898;2024-02-26T04:10:50;102573.25;;;-5.24;54.94
70323;BME280;57735;56.264;43.898;2024-02-26T04:13:21;102568.94;;;-5.22;54.61
70323;BME280;57735;56.264;43.898;2024-02-26T04:15:52;102565.44;;;-5.18;54.67
70323;BME280;57735;56.264;43.898;2024-02-26T04:18:26;102567.19;;;-5.14;54.47
70323;BME280;57735;56.264;43.898;2024-02-26T04:20:57;102561.97;;;-5.13;54.55
70323;BME280;57735;56.264;43.898;2024-02-26T04:23:28;102564.59;;;-5.11;54.42
70323;BME280;57735;56.264;43.898;2024-02-26T04:25:59;102568.91;;;-5.10;53.94
70323;BME280;57735;56.264;43.898;2024-02-26T04:28:30;102565.44;;;-5.11;54.13
70323;BME280;57735;56.264;43.898;2024-02-26T04:31:01;102564.59;;;-5.05;54.63
70323;BME280;57735;56.264;43.898;2024-02-26T04:33:34;102558.50;;;-5.00;54.75
70323;BME280;57735;56.264;43.898;2024-02-26T04:36:05;102568.91;;;-4.95;54.72
70323;BME280;57735;56.264;43.898;2024-02-26T04:38:41;102560.25;;;-4.93;54.57
70323;BME280;57735;56.264;43.898;2024-02-26T04:41:19;102561.09;;;-4.87;54.47
70323;BME280;57735;56.264;43.898;2024-02-26T04:43:50;102574.09;;;-4.80;54.66
70323;BME280;57735;56.264;43.898;2024-02-26T04:46:20;102579.28;;;-4.81;52.88
70323;BME280;57735;56.264;43.898;2024-02-26T04:48:54;102568.00;;;-4.76;53.46
70323;BME280;57735;56.264;43.898;2024-02-26T04:51:25;102574.09;;;-4.74;53.60
70323;BME280;57735;56.264;43.898;2024-02-26T04:53:56;102579.28;;;-4.71;53.33
70323;BME280;57735;56.264;43.898;2024-02-26T04:56:27;102565.38;;;-4.64;53.88
70323;BME280;57735;56.264;43.898;2024-02-26T04:58:58;102578.38;;;-4.61;53.97
70323;BME280;57735;56.264;43.898;2024-02-26T05:01:31;102579.25;;;-4.59;53.62
70323;BME280;57735;56.264;43.898;2024-02-26T05:04:02;102586.19;;;-4.54;53.23
70323;BME280;57735;56.264;43.898;2024-02-26T05:06:33;102573.19;;;-4.54;52.93
70323;BME280;57735;56.264;43.898;2024-02-26T05:09:04;102573.13;;;-4.48;53.72
70323;BME280;57735;56.264;43.898;2024-02-26T05:11:35;102578.34;;;-4.39;53.83
70323;BME280;57735;56.264;43.898;2024-02-26T05:14:11;102570.47;;;-4.32;53.45
70323;BME280;57735;56.264;43.898;2024-02-26T05:16:42;102571.34;;;-4.28;54.02
70323;BME280;57735;56.264;43.898;2024-02-26T05:19:13;102573.06;;;-4.23;53.77
70323;BME280;57735;56.264;43.898;2024-02-26T05:21:47;102580.88;;;-4.23;53.02
70323;BME280;57735;56.264;43.898;2024-02-26T05:24:23;102573.88;;;-4.16;52.84
70323;BME280;57735;56.264;43.898;2024-02-26T05:26:55;102573.03;;;-4.15;53.22
70323;BME280;57735;56.264;43.898;2024-02-26T05:29:26;102572.16;;;-4.17;52.33
70323;BME280;57735;56.264;43.898;2024-02-26T05:31:59;102578.22;;;-4.18;52.07
70323;BME280;57735;56.264;43.898;2024-02-26T05:34:30;102569.59;;;-4.20;52.10
70323;BME280;57735;56.264;43.898;2024-02-26T05:37:02;102575.63;;;-4.18;51.40
70323;BME280;57735;56.264;43.898;2024-02-26T05:39:34;102578.22;;;-4.18;51.52
70323;BME280;57735;56.264;43.898;2024-02-26T05:42:06;102570.41;;;-4.12;52.39
70323;BME280;57735;56.264;43.898;2024-02-26T05:44:39;102577.34;;;-4.06;52.55
70323;BME280;57735;56.264;43.898;2024-02-26T05:47:12;102574.75;;;-4.11;51.76
70323;BME280;57735;56.264;43.898;2024-02-26T05:49:44;102576.47;;;-4.07;51.72
70323;BME280;57735;56.264;43.898;2024-02-26T05:52:14;102583.38;;;-4.00;52.05
70323;BME280;57735;56.264;43.898;2024-02-26T05:54:45;102579.03;;;-3.99;51.03
70323;BME280;57735;56.264;43.898;2024-02-26T05:57:16;102576.41;;;-3.93;51.59
70323;BME280;57735;56.264;43.898;2024-02-26T05:59:49;102584.19;;;-3.85;51.08
70323;BME280;57735;56.264;43.898;2024-02-26T06:02:19;102582.41;;;-3.80;50.82
70323;BME280;57735;56.264;43.898;2024-02-26T06:04:50;102590.22;;;-3.80;50.85
70323;BME280;57735;56.264;43.898;2024-02-26T06:07:21;102576.31;;;-3.78;50.51
70323;BME280;57735;56.264;43.898;2024-02-26T06:09:52;102575.44;;;-3.80;50.23
70323;BME280;57735;56.264;43.898;2024-02-26T06:12:23;102575.44;;;-3.75;51.24
70323;BME280;57735;56.264;43.898;2024-02-26T06:14:54;102574.56;;;-3.73;50.74
70323;BME280;57735;56.264;43.898;2024-02-26T06:17:25;102576.31;;;-3.76;50.11
70323;BME280;57735;56.264;43.898;2024-02-26T06:19:56;102566.78;;;-3.80;50.32
70323;BME280;57735;56.264;43.898;2024-02-26T06:22:27;102577.19;;;-3.82;50.84
70323;BME280;57735;56.264;43.898;2024-02-26T06:24:58;102571.13;;;-3.82;50.83
70323;BME280;57735;56.264;43.898;2024-02-26T06:27:29;102578.94;;;-3.79;50.29
70323;BME280;57735;56.264;43.898;2024-02-26T06:30:00;102579.78;;;-3.77;50.61
70323;BME280;57735;56.264;43.898;2024-02-26T06:32:31;102585.00;;;-3.74;50.91
70323;BME280;57735;56.264;43.898;2024-02-26T06:35:02;102571.09;;;-3.75;49.91
70323;BME280;57735;56.264;43.898;2024-02-26T06:37:37;102575.38;;;-3.66;50.47
70323;BME280;57735;56.264;43.898;2024-02-26T06:40:08;102572.72;;;-3.59;50.25
70323;BME280;57735;56.264;43.898;2024-02-26T06:42:39;102564.88;;;-3.53;50.28
70323;BME280;57735;56.264;43.898;2024-02-26T06:45:10;102564.81;;;-3.48;50.01
70323;BME280;57735;56.264;43.898;2024-02-26T06:47:41;102563.03;;;-3.40;50.72
70323;BME280;57735;56.264;43.898;2024-02-26T06:50:14;102567.38;;;-3.36;49.89
70323;BME280;57735;56.264;43.898;2024-02-26T06:52:45;102575.09;;;-3.27;50.19
70323;BME280;57735;56.264;43.898;2024-02-26T06:55:17;102568.09;;;-3.19;50.10
70323;BME280;57735;56.264;43.898;2024-02-26T06:57:48;102587.16;;;-3.12;50.66
70323;BME280;57735;56.264;43.898;2024-02-26T07:00:19;102575.81;;;-3.06;49.98
70323;BME280;57735;56.264;43.898;2024-02-26T07:02:50;102575.81;;;-3.06;49.80
70323;BME280;57735;56.264;43.898;2024-02-26T07:05:21;102567.03;;;-2.99;50.12
70323;BME280;57735;56.264;43.898;2024-02-26T07:07:51;102569.56;;;-2.90;49.93
70323;BME280;57735;56.264;43.898;2024-02-26T07:10:22;102562.63;;;-2.91;49.15
70323;BME280;57735;56.264;43.898;2024-02-26T07:12:53;102559.91;;;-2.84;49.73
70323;BME280;57735;56.264;43.898;2024-02-26T07:15:24;102568.56;;;-2.75;49.55
70323;BME280;57735;56.264;43.898;2024-02-26T07:17:55;102566.81;;;-2.75;49.20
70323;BME280;57735;56.264;43.898;2024-02-26T07:20:25;102567.59;;;-2.67;48.95
70323;BME280;57735;56.264;43.898;2024-02-26T07:22:57;102573.56;;;-2.56;49.35
70323;BME280;57735;56.264;43.898;2024-02-26T07:25:28;102566.47;;;-2.43;49.06
70323;BME280;57735;56.264;43.898;2024-02-26T07:27:58;102568.00;;;-2.25;49.09
70323;BME280;57735;56.264;43.898;2024-02-26T07:30:29;102565.16;;;-2.07;49.10
70323;BME280;57735;56.264;43.898;2024-02-26T07:33:00;102566.72;;;-1.94;48.62
70323;BME280;57735;56.264;43.898;2024-02-26T07:35:33;102574.47;;;-1.86;48.29
70323;BME280;57735;56.264;43.898;2024-02-26T07:38:04;102576.16;;;-1.84;48.59
70323;BME280;57735;56.264;43.898;2024-02-26T07:40:35;102570.03;;;-1.81;48.55
70323;BME280;57735;56.264;43.898;2024-02-26T07:43:06;102570.13;;;-1.87;48.29
70323;BME280;57735;56.264;43.898;2024-02-26T07:45:37;102565.13;;;-2.02;48.48
70323;BME280;57735;56.264;43.898;2024-02-26T07:48:08;102567.63;;;-1.98;49.28
70323;BME280;57735;56.264;43.898;2024-02-26T07:50:39;102569.28;;;-1.89;49.28
70323;BME280;57735;56.264;43.898;2024-02-26T07:53:11;102573.63;;;-1.87;48.98
70323;BME280;57735;56.264;43.898;2024-02-26T07:55:42;102571.88;;;-1.88;49.29
70323;BME280;57735;56.264;43.898;2024-02-26T07:58:15;102574.50;;;-1.88;49.77
70323;BME280;57735;56.264;43.898;2024-02-26T08:00:46;102572.59;;;-1.78;49.69
70323;BME280;57735;56.264;43.898;2024-02-26T08:03:18;102566.47;;;-1.74;49.20
70323;BME280;57735;56.264;43.898;2024-02-26T08:05:50;102563.75;;;-1.68;49.34
70323;BME280;57735;56.264;43.898;2024-02-26T08:08:21;102571.63;;;-1.68;48.67
70323;BME280;57735;56.264;43.898;2024-02-26T08:10:52;102560.28;;;-1.68;49.72
70323;BME280;57735;56.264;43.898;2024-02-26T08:13:24;102558.47;;;-1.66;49.69
70323;BME280;57735;56.264;43.898;2024-02-26T08:15:55;102560.09;;;-1.56;49.40
70323;BME280;57735;56.264;43.898;2024-02-26T08:18:26;102564.44;;;-1.54;49.23
70323;BME280;57735;56.264;43.898;2024-02-26T08:20:57;102561.78;;;-1.52;49.04
70323;BME280;57735;56.264;43.898;2024-02-26T08:23:29;102559.03;;;-1.43;49.42
70323;BME280;57735;56.264;43.898;2024-02-26T08:26:03;102553.69;;;-1.37;48.96
70323;BME280;57735;56.264;43.898;2024-02-26T08:28:37;102551.00;;;-1.34;49.49
70323;BME280;57735;56.264;43.898;2024-02-26T08:31:09;102553.47;;;-1.23;49.28
70323;BME280;57735;56.264;43.898;2024-02-26T08:33:41;102545.44;;;-1.13;48.91
70323;BME280;57735;56.264;43.898;2024-02-26T08:36:12;102543.63;;;-1.08;48.65
70323;BME280;57735;56.264;43.898;2024-02-26T08:38:43;102550.41;;;-0.99;48.83
70323;BME280;57735;56.264;43.898;2024-02-26T08:41:14;102534.53;;;-0.87;48.47
70323;BME280;57735;56.264;43.898;2024-02-26T08:43:45;102538.69;;;-0.77;48.58
70323;BME280;57735;56.264;43.898;2024-02-26T08:46:16;102535.91;;;-0.67;48.25
70323;BME280;57735;56.264;43.898;2024-02-26T08:48:47;102542.66;;;-0.56;48.54
70323;BME280;57735;56.264;43.898;2024-02-26T08:51:18;102533.72;;;-0.46;48.51
70323;BME280;57735;56.264;43.898;2024-02-26T08:53:49;102530.22;;;-0.45;48.16
70323;BME280;57735;56.264;43.898;2024-02-26T08:56:21;102532.78;;;-0.42;48.45
70323;BME280;57735;56.264;43.898;2024-02-26T08:58:52;102535.38;;;-0.42;48.04
70323;BME280;57735;56.264;43.898;2024-02-26T09:01:24;102532.66;;;-0.36;48.26
70323;BME280;57735;56.264;43.898;2024-02-26T09:03:55;102526.28;;;-0.24;48.09
70323;BME280;57735;56.264;43.898;2024-02-26T09:06:27;102533.00;;;-0.11;47.70
70323;BME280;57735;56.264;43.898;2024-02-26T09:08:58;102526.03;;;-0.12;47.56
70323;BME280;57735;56.264;43.898;2024-02-26T09:11:29;102527.59;;;-0.03;48.12
70323;BME280;57735;56.264;43.898;2024-02-26T09:14:00;102528.47;;;-0.03;47.21
70323;BME280;57735;56.264;43.898;2024-02-26T09:16:31;102526.75;;;-0.04;47.09
70323;BME280;57735;56.264;43.898;2024-02-26T09:19:03;102520.47;;;0.02;47.87
70323;BME280;57735;56.264;43.898;2024-02-26T09:21:34;102528.19;;;0.10;46.98
70323;BME280;57735;56.264;43.898;2024-02-26T09:24:08;102527.38;;;0.06;46.60
70323;BME280;57735;56.264;43.898;2024-02-26T09:26:39;102528.16;;;0.11;46.93
70323;BME280;57735;56.264;43.898;2024-02-26T09:29:10;102521.09;;;0.15;47.21
70323;BME280;57735;56.264;43.898;2024-02-26T09:31:41;102520.06;;;0.20;46.63
70323;BME280;57735;56.264;43.898;2024-02-26T09:34:12;102516.59;;;0.20;45.69
70323;BME280;57735;56.264;43.898;2024-02-26T09:36:43;102516.63;;;0.18;45.98
70323;BME280;57735;56.264;43.898;2024-02-26T09:39:14;102518.22;;;0.25;46.43
70323;BME280;57735;56.264;43.898;2024-02-26T09:41:50;102513.78;;;0.27;46.12
70323;BME280;57735;56.264;43.898;2024-02-26T09:44:22;102517.22;;;0.31;46.33
70323;BME280;57735;56.264;43.898;2024-02-26T09:46:54;102511.31;;;0.21;44.84
70323;BME280;57735;56.264;43.898;2024-02-26T09:49:25;102511.38;;;0.18;45.39
70323;BME280;57735;56.264;43.898;2024-02-26T09:51:57;102513.19;;;0.16;45.30
70323;BME280;57735;56.264;43.898;2024-02-26T09:54:30;102513.09;;;0.19;45.29
70323;BME280;57735;56.264;43.898;2024-02-26T09:57:03;102501.69;;;0.22;45.08
70323;BME280;57735;56.264;43.898;2024-02-26T09:59:41;102507.03;;;0.17;44.68
70323;BME280;57735;56.264;43.898;2024-02-26T10:02:14;102503.59;;;0.15;44.87
70323;BME280;57735;56.264;43.898;2024-02-26T10:04:49;102507.13;;;0.14;45.14
70323;BME280;57735;56.264;43.898;2024-02-26T10:07:23;102494.78;;;0.18;44.64
70323;BME280;57735;56.264;43.898;2024-02-26T10:09:57;102488.66;;;0.17;45.19
70323;BME280;57735;56.264;43.898;2024-02-26T10:12:28;102494.88;;;0.15;44.52
70323;BME280;57735;56.264;43.898;2024-02-26T10:14:59;102484.16;;;0.24;44.99
70323;BME280;57735;56.264;43.898;2024-02-26T10:17:31;102490.09;;;0.32;44.65
70323;BME280;57735;56.264;43.898;2024-02-26T10:20:17;102476.09;;;0.33;44.97
70323;BME280;57735;56.264;43.898;2024-02-26T10:22:54;102485.47;;;0.42;44.42
70323;BME280;57735;56.264;43.898;2024-02-26T10:25:25;102485.47;;;0.42;44.07
70323;BME280;57735;56.264;43.898;2024-02-26T10:27:59;102482.72;;;0.48;44.39
70323;BME280;57735;56.264;43.898;2024-02-26T10:30:36;102482.72;;;0.48;43.89
70323;BME280;57735;56.264;43.898;2024-02-26T10:33:07;102480.91;;;0.50;44.18
70323;BME280;57735;56.264;43.898;2024-02-26T10:35:38;102480.91;;;0.50;44.00
70323;BME280;57735;56.264;43.898;2024-02-26T10:38:12;102479.91;;;0.54;44.13
70323;BME280;57735;56.264;43.898;2024-02-26T10:40:43;102478.78;;;0.65;43.68
70323;BME280;57735;56.264;43.898;2024-02-26T10:43:25;102482.09;;;0.72;43.71
70323;BME280;57735;56.264;43.898;2024-02-26T10:46:17;102476.72;;;0.77;43.49
70323;BME280;57735;56.264;43.898;2024-02-26T10:48:52;102478.38;;;0.81;43.53
70323;BME280;57735;56.264;43.898;2024-02-26T10:51:26;102480.97;;;0.82;42.68
70323;BME280;57735;56.264;43.898;2024-02-26T10:53:59;102467.84;;;0.82;42.97
70323;BME280;57735;56.264;43.898;2024-02-26T10:56:34;102475.69;;;0.84;43.66
70323;BME280;57735;56.264;43.898;2024-02-26T10:59:07;102475.56;;;0.87;42.78
70323;BME280;57735;56.264;43.898;2024-02-26T11:01:39;102470.09;;;0.96;43.78
70323;BME280;57735;56.264;43.898;2024-02-26T11:04:12;102474.25;;;1.03;43.37
70323;BME280;57735;56.264;43.898;2024-02-26T11:06:45;102462.34;;;0.91;42.06
70323;BME280;57735;56.264;43.898;2024-02-26T11:09:19;102468.41;;;0.93;42.60
70323;BME280;57735;56.264;43.898;2024-02-26T11:11:50;102466.69;;;0.92;42.06
70323;BME280;57735;56.264;43.898;2024-02-26T11:14:26;102466.53;;;0.98;42.31
70323;BME280;57735;56.264;43.898;2024-02-26T11:17:03;102459.38;;;1.03;42.24
70323;BME280;57735;56.264;43.898;2024-02-26T11:19:35;102455.56;;;1.15;42.46
70323;BME280;57735;56.264;43.898;2024-02-26T11:22:07;102455.34;;;1.23;41.70
70323;BME280;57735;56.264;43.898;2024-02-26T11:24:37;102451.75;;;1.25;42.15
70323;BME280;57735;56.264;43.898;2024-02-26T11:27:12;102450.91;;;1.25;41.34
70323;BME280;57735;56.264;43.898;2024-02-26T11:29:51;102454.56;;;1.19;41.44
70323;BME280;57735;56.264;43.898;2024-02-26T11:32:23;102445.13;;;1.12;42.13
70323;BME280;57735;56.264;43.898;2024-02-26T11:34:54;102438.13;;;1.13;42.09
70323;BME280;57735;56.264;43.898;2024-02-26T11:37:25;102438.66;;;0.93;42.36
70323;BME280;57735;56.264;43.898;2024-02-26T11:39:59;102442.44;;;0.83;43.16
70323;BME280;57735;56.264;43.898;2024-02-26T11:42:31;102447.06;;;0.73;42.68
70323;BME280;57735;56.264;43.898;2024-02-26T11:45:04;102450.75;;;0.66;43.34
70323;BME280;57735;56.264;43.898;2024-02-26T11:47:56;102443.94;;;0.59;44.02
70323;BME280;57735;56.264;43.898;2024-02-26T11:50:39;102445.03;;;0.50;43.96
70323;BME280;57735;56.264;43.898;2024-02-26T11:59:10;102429.91;;;0.26;46.82
70323;BME280;57735;56.264;43.898;2024-02-26T12:01:47;102431.78;;;0.21;48.42
70323;BME280;57735;56.264;43.898;2024-02-26T12:04:31;102427.56;;;0.15;49.67
70323;BME280;57735;56.264;43.898;2024-02-26T12:07:03;102435.50;;;0.12;49.77
70323;BME280;57735;56.264;43.898;2024-02-26T12:09:39;102430.28;;;0.11;49.84
70323;BME280;57735;56.264;43.898;2024-02-26T12:12:17;102433.72;;;0.13;50.13
70323;BME280;57735;56.264;43.898;2024-02-26T12:14:55;102428.47;;;0.13;50.83
70323;BME280;57735;56.264;43.898;2024-02-26T12:17:28;102424.16;;;0.10;48.56
70323;BME280;57735;56.264;43.898;2024-02-26T12:20:13;102429.41;;;0.10;48.66
70323;BME280;57735;56.264;43.898;2024-02-26T12:22:47;102427.56;;;0.15;48.84
70323;BME280;57735;56.264;43.898;2024-02-26T12:25:24;102425.84;;;0.14;47.39
70323;BME280;57735;56.264;43.898;2024-02-26T12:27:59;102422.38;;;0.12;47.88
70323;BME280;57735;56.264;43.898;2024-02-26T12:30:30;102421.47;;;0.13;47.90
70323;BME280;57735;56.264;43.898;2024-02-26T12:33:02;102421.47;;;0.13;47.06
70323;BME280;57735;56.264;43.898;2024-02-26T12:35:33;102419.00;;;0.07;46.83
70323;BME280;57735;56.264;43.898;2024-02-26T12:38:05;102426.94;;;0.04;46.74
70323;BME280;57735;56.264;43.898;2024-02-26T12:40:36;102422.53;;;0.05;47.06
70323;BME280;57735;56.264;43.898;2024-02-26T12:43:07;102429.53;;;0.04;46.89
70323;BME280;57735;56.264;43.898;2024-02-26T12:45:43;102420.78;;;0.05;47.00
70323;BME280;57735;56.264;43.898;2024-02-26T12:48:22;102413.16;;;-0.04;46.64
70323;BME280;57735;56.264;43.898;2024-02-26T12:50:54;102408.88;;;-0.08;47.38
70323;BME280;57735;56.264;43.898;2024-02-26T12:53:25;102406.25;;;-0.08;47.64
70323;BME280;57735;56.264;43.898;2024-02-26T12:55:57;102416.84;;;-0.13;46.37
70323;BME280;57735;56.264;43.898;2024-02-26T12:58:29;102411.75;;;-0.19;47.11
70323;BME280;57735;56.264;43.898;2024-02-26T13:01:04;102406.63;;;-0.23;46.93
70323;BME280;57735;56.264;43.898;2024-02-26T13:03:36;102407.63;;;-0.30;46.74
70323;BME280;57735;56.264;43.898;2024-02-26T13:06:07;102406.06;;;-0.38;47.22
70323;BME280;57735;56.264;43.898;2024-02-26T13:08:39;102409.63;;;-0.42;46.85
70323;BME280;57735;56.264;43.898;2024-02-26T13:11:09;102405.31;;;-0.44;47.16
70323;BME280;57735;56.264;43.898;2024-02-26T13:13:41;102408.03;;;-0.49;47.03